sensor_id;sensor_type;location;lat;lon;timestamp;temperature;humidity
45329;DHT22;31063;48.356;10.896;2022-10-19T00:00:44;15.00;99.90
45329;DHT22;31063;48.356;10.896;2022-10-19T00:03:10;14.90;99.90
45329;DHT22;31063;48.356;10.896;2022-10-19T00:05:35;14.90;99.90
45329;DHT22;31063;48.356;10.896;2022-10-19T00:08:01;14.90;99.90
45329;DHT22;31063;48.356;10.896;2022-10-19T00:10:27;14.90;99.90
45329;DHT22;31063;48.356;10.896;2022-10-19T00:12:52;14.80;99.90
45329;DHT22;31063;48.356;10.896;2022-10-19T00:15:18;14.80;99.90
45329;DHT22;31063;48.356;10.896;2022-10-19T00:17:44;14.80;99.90
45329;DHT22;31063;48.356;10.896;2022-10-19T00:20:10;14.70;99.90
45329;DHT22;31063;48.356;10.896;2022-10-19T00:22:36;14.70;99.90
45329;DHT22;31063;48.356;10.896;2022-10-19T00:25:01;14.70;99.90
45329;DHT22;31063;48.356;10.896;2022-10-19T00:27:27;14.70;99.90
45329;DHT22;31063;48.356;10.896;2022-10-19T00:29:52;14.60;99.90
45329;DHT22;31063;48.356;10.896;2022-10-19T00:32:18;14.60;99.90
45329;DHT22;31063;48.356;10.896;2022-10-19T00:34:43;14.60;99.90
45329;DHT22;31063;48.356;10.896;2022-10-19T00:37:09;14.60;99.90
45329;DHT22;31063;48.356;10.896;2022-10-19T00:39:34;14.60;99.90
45329;DHT22;31063;48.356;10.896;2022-10-19T00:42:00;14.60;99.90
45329;DHT22;31063;48.356;10.896;2022-10-19T00:46:56;14.50;99.90
45329;DHT22;31063;48.356;10.896;2022-10-19T00:49:24;14.50;99.90
45329;DHT22;31063;48.356;10.896;2022-10-19T00:51:52;14.50;99.90
45329;DHT22;31063;48.356;10.896;2022-10-19T00:54:18;14.50;99.90
45329;DHT22;31063;48.356;10.896;2022-10-19T00:56:45;14.40;99.90
45329;DHT22;31063;48.356;10.896;2022-10-19T00:59:12;14.40;99.90
45329;DHT22;31063;48.356;10.896;2022-10-19T01:01:39;14.40;99.90
45329;DHT22;31063;48.356;10.896;2022-10-19T01:04:05;14.40;99.90
45329;DHT22;31063;48.356;10.896;2022-10-19T01:06:30;14.30;99.90
45329;DHT22;31063;48.356;10.896;2022-10-19T01:08:56;14.30;99.90
45329;DHT22;31063;48.356;10.896;2022-10-19T01:11:25;14.40;99.90
45329;DHT22;31063;48.356;10.896;2022-10-19T01:21:47;14.30;99.90
45329;DHT22;31063;48.356;10.896;2022-10-19T01:26:45;14.30;99.90
45329;DHT22;31063;48.356;10.896;2022-10-19T01:31:46;14.40;99.90
45329;DHT22;31063;48.356;10.896;2022-10-19T01:34:24;14.30;99.90
45329;DHT22;31063;48.356;10.896;2022-10-19T01:36:57;14.40;99.90
45329;DHT22;31063;48.356;10.896;2022-10-19T01:39:31;14.40;99.90
45329;DHT22;31063;48.356;10.896;2022-10-19T01:46:59;14.40;99.90
45329;DHT22;31063;48.356;10.896;2022-10-19T01:49:34;14.50;99.90
45329;DHT22;31063;48.356;10.896;2022-10-19T01:52:05;14.40;99.90
45329;DHT22;31063;48.356;10.896;2022-10-19T01:54:33;14.40;99.90
45329;DHT22;31063;48.356;10.896;2022-10-19T01:57:00;14.40;99.90
45329;DHT22;31063;48.356;10.896;2022-10-19T01:59:28;14.40;99.90
45329;DHT22;31063;48.356;10.896;2022-10-19T02:01:54;14.40;99.90
45329;DHT22;31063;48.356;10.896;2022-10-19T02:04:20;14.40;99.90
45329;DHT22;31063;48.356;10.896;2022-10-19T02:06:47;14.50;99.90
45329;DHT22;31063;48.356;10.896;2022-10-19T02:09:14;14.40;99.90
45329;DHT22;31063;48.356;10.896;2022-10-19T02:11:43;14.50;99.90
45329;DHT22;31063;48.356;10.896;2022-10-19T02:14:10;14.40;99.90
45329;DHT22;31063;48.356;10.896;2022-10-19T02:16:39;14.40;99.90
45329;DHT22;31063;48.356;10.896;2022-10-19T02:19:07;14.40;99.90
45329;DHT22;31063;48.356;10.896;2022-10-19T02:21:33;14.40;99.90
45329;DHT22;31063;48.356;10.896;2022-10-19T02:23:58;14.40;99.90
45329;DHT22;31063;48.356;10.896;2022-10-19T02:26:24;14.40;99.90
45329;DHT22;31063;48.356;10.896;2022-10-19T02:28:49;14.40;99.90
45329;DHT22;31063;48.356;10.896;2022-10-19T02:31:15;14.50;99.90
45329;DHT22;31063;48.356;10.896;2022-10-19T02:33:41;14.50;99.90
45329;DHT22;31063;48.356;10.896;2022-10-19T02:36:06;14.50;99.90
45329;DHT22;31063;48.356;10.896;2022-10-19T02:38:32;14.60;99.90
45329;DHT22;31063;48.356;10.896;2022-10-19T02:43:30;14.60;99.90
45329;DHT22;31063;48.356;10.896;2022-10-19T02:46:00;14.60;99.90
45329;DHT22;31063;48.356;10.896;2022-10-19T02:48:27;14.60;99.90
45329;DHT22;31063;48.356;10.896;2022-10-19T02:50:54;14.60;99.90
45329;DHT22;31063;48.356;10.896;2022-10-19T02:53:20;14.60;99.90
45329;DHT22;31063;48.356;10.896;2022-10-19T02:55:48;14.60;99.90
45329;DHT22;31063;48.356;10.896;2022-10-19T02:58:14;14.60;99.90
45329;DHT22;31063;48.356;10.896;2022-10-19T03:00:40;14.60;99.90
45329;DHT22;31063;48.356;10.896;2022-10-19T03:03:05;14.60;99.90
45329;DHT22;31063;48.356;10.896;2022-10-19T03:05:31;14.60;99.90
45329;DHT22;31063;48.356;10.896;2022-10-19T03:07:56;14.60;99.90
45329;DHT22;31063;48.356;10.896;2022-10-19T03:10:22;14.60;99.90
45329;DHT22;31063;48.356;10.896;2022-10-19T03:12:47;14.60;99.90
45329;DHT22;31063;48.356;10.896;2022-10-19T03:15:14;14.60;99.90
45329;DHT22;31063;48.356;10.896;2022-10-19T03:17:39;14.60;99.90
45329;DHT22;31063;48.356;10.896;2022-10-19T03:20:05;14.70;99.90
45329;DHT22;31063;48.356;10.896;2022-10-19T03:22:30;14.70;99.90
45329;DHT22;31063;48.356;10.896;2022-10-19T03:24:56;14.70;99.90
45329;DHT22;31063;48.356;10.896;2022-10-19T03:27:22;14.70;99.90
45329;DHT22;31063;48.356;10.896;2022-10-19T03:29:47;14.70;99.90
45329;DHT22;31063;48.356;10.896;2022-10-19T03:32:13;14.60;99.90
45329;DHT22;31063;48.356;10.896;2022-10-19T03:34:38;14.70;99.90
45329;DHT22;31063;48.356;10.896;2022-10-19T03:37:04;14.70;99.90
45329;DHT22;31063;48.356;10.896;2022-10-19T03:39:29;14.60;99.90
45329;DHT22;31063;48.356;10.896;2022-10-19T03:41:55;14.60;99.90
45329;DHT22;31063;48.356;10.896;2022-10-19T03:44:20;14.60;99.90
45329;DHT22;31063;48.356;10.896;2022-10-19T03:46:46;14.60;99.90
45329;DHT22;31063;48.356;10.896;2022-10-19T03:49:11;14.60;99.90
45329;DHT22;31063;48.356;10.896;2022-10-19T03:51:37;14.60;99.90
45329;DHT22;31063;48.356;10.896;2022-10-19T03:54:04;14.60;99.90
45329;DHT22;31063;48.356;10.896;2022-10-19T03:56:30;14.60;99.90
45329;DHT22;31063;48.356;10.896;2022-10-19T03:58:57;14.60;99.90
45329;DHT22;31063;48.356;10.896;2022-10-19T04:01:24;14.60;99.90
45329;DHT22;31063;48.356;10.896;2022-10-19T04:03:53;14.60;99.90
45329;DHT22;31063;48.356;10.896;2022-10-19T04:06:19;14.60;99.90
45329;DHT22;31063;48.356;10.896;2022-10-19T04:08:47;14.60;99.90
45329;DHT22;31063;48.356;10.896;2022-10-19T04:11:13;14.60;99.90
45329;DHT22;31063;48.356;10.896;2022-10-19T04:13:39;14.50;99.90
45329;DHT22;31063;48.356;10.896;2022-10-19T04:16:05;14.60;99.90
45329;DHT22;31063;48.356;10.896;2022-10-19T04:18:30;14.60;99.90
45329;DHT22;31063;48.356;10.896;2022-10-19T04:20:56;14.60;99.90
45329;DHT22;31063;48.356;10.896;2022-10-19T04:23:22;14.60;99.90
45329;DHT22;31063;48.356;10.896;2022-10-19T04:25:48;14.60;99.90
45329;DHT22;31063;48.356;10.896;2022-10-19T04:28:13;14.60;99.90
45329;DHT22;31063;48.356;10.896;2022-10-19T04:30:39;14.60;99.90
45329;DHT22;31063;48.356;10.896;2022-10-19T04:33:04;14.60;99.90
45329;DHT22;31063;48.356;10.896;2022-10-19T04:35:30;14.60;99.90
45329;DHT22;31063;48.356;10.896;2022-10-19T04:37:57;14.60;99.90
45329;DHT22;31063;48.356;10.896;2022-10-19T04:40:22;14.60;99.90
45329;DHT22;31063;48.356;10.896;2022-10-19T04:42:48;14.60;99.90
45329;DHT22;31063;48.356;10.896;2022-10-19T04:45:13;14.60;99.90
45329;DHT22;31063;48.356;10.896;2022-10-19T04:47:39;14.60;99.90
45329;DHT22;31063;48.356;10.896;2022-10-19T04:50:04;14.60;99.90
45329;DHT22;31063;48.356;10.896;2022-10-19T04:52:30;14.60;99.90
45329;DHT22;31063;48.356;10.896;2022-10-19T04:54:55;14.60;99.90
45329;DHT22;31063;48.356;10.896;2022-10-19T04:57:21;14.60;99.90
45329;DHT22;31063;48.356;10.896;2022-10-19T04:59:46;14.70;99.90
45329;DHT22;31063;48.356;10.896;2022-10-19T05:02:12;14.70;99.90
45329;DHT22;31063;48.356;10.896;2022-10-19T05:04:37;14.60;99.90
45329;DHT22;31063;48.356;10.896;2022-10-19T05:07:03;14.60;99.90
45329;DHT22;31063;48.356;10.896;2022-10-19T05:09:28;14.60;99.90
45329;DHT22;31063;48.356;10.896;2022-10-19T05:11:54;14.60;99.90
45329;DHT22;31063;48.356;10.896;2022-10-19T05:14:19;14.60;99.90
45329;DHT22;31063;48.356;10.896;2022-10-19T05:16:45;14.70;99.90
45329;DHT22;31063;48.356;10.896;2022-10-19T05:19:11;14.70;99.90
45329;DHT22;31063;48.356;10.896;2022-10-19T05:21:38;14.70;99.90
45329;DHT22;31063;48.356;10.896;2022-10-19T05:24:03;14.60;99.90
45329;DHT22;31063;48.356;10.896;2022-10-19T05:26:29;14.70;99.90
45329;DHT22;31063;48.356;10.896;2022-10-19T05:28:56;14.70;99.90
45329;DHT22;31063;48.356;10.896;2022-10-19T05:31:23;14.70;99.90
45329;DHT22;31063;48.356;10.896;2022-10-19T05:33:49;14.70;99.90
45329;DHT22;31063;48.356;10.896;2022-10-19T05:36:22;14.70;99.90
45329;DHT22;31063;48.356;10.896;2022-10-19T05:38:50;14.70;99.90
45329;DHT22;31063;48.356;10.896;2022-10-19T05:41:17;14.70;99.90
45329;DHT22;31063;48.356;10.896;2022-10-19T05:43:43;14.80;99.90
45329;DHT22;31063;48.356;10.896;2022-10-19T05:46:09;14.80;99.90
45329;DHT22;31063;48.356;10.896;2022-10-19T05:48:35;14.80;99.90
45329;DHT22;31063;48.356;10.896;2022-10-19T05:51:01;14.80;99.90
45329;DHT22;31063;48.356;10.896;2022-10-19T05:53:29;14.80;99.90
45329;DHT22;31063;48.356;10.896;2022-10-19T05:55:55;14.80;99.90
45329;DHT22;31063;48.356;10.896;2022-10-19T05:58:21;14.80;99.90
45329;DHT22;31063;48.356;10.896;2022-10-19T06:00:50;14.80;99.90
45329;DHT22;31063;48.356;10.896;2022-10-19T06:03:16;14.90;99.90
45329;DHT22;31063;48.356;10.896;2022-10-19T06:05:41;14.90;99.90
45329;DHT22;31063;48.356;10.896;2022-10-19T06:08:07;14.90;99.90
45329;DHT22;31063;48.356;10.896;2022-10-19T06:10:33;14.90;99.90
45329;DHT22;31063;48.356;10.896;2022-10-19T06:12:58;14.90;99.90
45329;DHT22;31063;48.356;10.896;2022-10-19T06:15:23;14.90;99.90
45329;DHT22;31063;48.356;10.896;2022-10-19T06:17:49;14.90;99.90
45329;DHT22;31063;48.356;10.896;2022-10-19T06:20:14;14.90;99.90
45329;DHT22;31063;48.356;10.896;2022-10-19T06:22:40;15.00;99.90
45329;DHT22;31063;48.356;10.896;2022-10-19T06:25:07;15.00;99.90
45329;DHT22;31063;48.356;10.896;2022-10-19T06:27:32;15.00;99.90
45329;DHT22;31063;48.356;10.896;2022-10-19T06:29:58;15.00;99.90
45329;DHT22;31063;48.356;10.896;2022-10-19T06:32:23;15.00;99.90
45329;DHT22;31063;48.356;10.896;2022-10-19T06:34:49;15.00;99.90
45329;DHT22;31063;48.356;10.896;2022-10-19T06:37:15;15.10;99.90
45329;DHT22;31063;48.356;10.896;2022-10-19T06:39:40;15.10;99.90
45329;DHT22;31063;48.356;10.896;2022-10-19T06:42:06;15.10;99.90
45329;DHT22;31063;48.356;10.896;2022-10-19T06:44:31;15.10;99.90
45329;DHT22;31063;48.356;10.896;2022-10-19T06:46:56;15.10;99.90
45329;DHT22;31063;48.356;10.896;2022-10-19T06:49:22;15.10;99.90
45329;DHT22;31063;48.356;10.896;2022-10-19T06:51:47;15.10;99.90
45329;DHT22;31063;48.356;10.896;2022-10-19T06:54:13;15.20;99.90
45329;DHT22;31063;48.356;10.896;2022-10-19T06:56:38;15.20;99.90
45329;DHT22;31063;48.356;10.896;2022-10-19T06:59:04;15.20;99.90
45329;DHT22;31063;48.356;10.896;2022-10-19T07:01:29;15.30;99.90
45329;DHT22;31063;48.356;10.896;2022-10-19T07:03:55;15.30;99.90
45329;DHT22;31063;48.356;10.896;2022-10-19T07:06:20;15.30;99.90
45329;DHT22;31063;48.356;10.896;2022-10-19T07:08:46;15.30;99.90
45329;DHT22;31063;48.356;10.896;2022-10-19T07:11:15;15.30;99.90
45329;DHT22;31063;48.356;10.896;2022-10-19T07:13:42;15.30;99.90
45329;DHT22;31063;48.356;10.896;2022-10-19T07:16:08;15.40;99.90
45329;DHT22;31063;48.356;10.896;2022-10-19T07:18:36;15.40;99.90
45329;DHT22;31063;48.356;10.896;2022-10-19T07:21:03;15.40;99.90
45329;DHT22;31063;48.356;10.896;2022-10-19T07:23:31;15.50;99.90
45329;DHT22;31063;48.356;10.896;2022-10-19T07:25:57;15.50;99.90
45329;DHT22;31063;48.356;10.896;2022-10-19T07:28:26;15.50;99.90
45329;DHT22;31063;48.356;10.896;2022-10-19T07:30:52;15.60;99.90
45329;DHT22;31063;48.356;10.896;2022-10-19T07:33:17;15.60;99.90
45329;DHT22;31063;48.356;10.896;2022-10-19T07:35:43;15.60;99.90
45329;DHT22;31063;48.356;10.896;2022-10-19T07:38:08;15.70;99.90
45329;DHT22;31063;48.356;10.896;2022-10-19T07:40:34;15.70;99.90
45329;DHT22;31063;48.356;10.896;2022-10-19T07:43:00;15.70;99.90
45329;DHT22;31063;48.356;10.896;2022-10-19T07:45:25;15.70;99.90
45329;DHT22;31063;48.356;10.896;2022-10-19T07:47:51;15.80;99.90
45329;DHT22;31063;48.356;10.896;2022-10-19T07:50:17;15.80;99.90
45329;DHT22;31063;48.356;10.896;2022-10-19T07:52:42;15.80;99.90
45329;DHT22;31063;48.356;10.896;2022-10-19T07:55:08;15.80;99.90
45329;DHT22;31063;48.356;10.896;2022-10-19T07:57:34;15.90;99.90
45329;DHT22;31063;48.356;10.896;2022-10-19T07:59:59;15.90;99.90
45329;DHT22;31063;48.356;10.896;2022-10-19T08:02:25;16.00;99.90
45329;DHT22;31063;48.356;10.896;2022-10-19T08:04:50;16.00;99.90
45329;DHT22;31063;48.356;10.896;2022-10-19T08:07:16;16.00;99.90
45329;DHT22;31063;48.356;10.896;2022-10-19T08:09:41;16.10;99.90
45329;DHT22;31063;48.356;10.896;2022-10-19T08:12:07;16.10;99.90
45329;DHT22;31063;48.356;10.896;2022-10-19T08:14:32;16.10;99.90
45329;DHT22;31063;48.356;10.896;2022-10-19T08:16:58;16.20;99.90
45329;DHT22;31063;48.356;10.896;2022-10-19T08:19:24;16.20;99.90
45329;DHT22;31063;48.356;10.896;2022-10-19T08:21:49;16.30;99.90
45329;DHT22;31063;48.356;10.896;2022-10-19T08:24:16;16.40;99.90
45329;DHT22;31063;48.356;10.896;2022-10-19T08:26:41;16.40;99.90
45329;DHT22;31063;48.356;10.896;2022-10-19T08:29:09;16.50;99.90
45329;DHT22;31063;48.356;10.896;2022-10-19T08:31:34;16.50;99.90
45329;DHT22;31063;48.356;10.896;2022-10-19T08:34:00;16.50;99.90
45329;DHT22;31063;48.356;10.896;2022-10-19T08:36:25;16.60;99.90
45329;DHT22;31063;48.356;10.896;2022-10-19T08:38:55;16.60;99.90
45329;DHT22;31063;48.356;10.896;2022-10-19T08:41:39;16.70;99.90
45329;DHT22;31063;48.356;10.896;2022-10-19T08:49:17;16.80;99.90
45329;DHT22;31063;48.356;10.896;2022-10-19T08:51:44;16.80;99.90
45329;DHT22;31063;48.356;10.896;2022-10-19T08:54:13;16.80;99.90
45329;DHT22;31063;48.356;10.896;2022-10-19T08:56:52;16.80;99.90
45329;DHT22;31063;48.356;10.896;2022-10-19T09:01:58;16.90;99.90
45329;DHT22;31063;48.356;10.896;2022-10-19T09:09:22;16.90;99.90
45329;DHT22;31063;48.356;10.896;2022-10-19T09:11:49;17.00;99.90
45329;DHT22;31063;48.356;10.896;2022-10-19T09:16:44;17.00;99.90
45329;DHT22;31063;48.356;10.896;2022-10-19T09:19:21;17.10;99.90
45329;DHT22;31063;48.356;10.896;2022-10-19T09:21:50;17.10;99.90
45329;DHT22;31063;48.356;10.896;2022-10-19T09:24:24;17.10;99.90
45329;DHT22;31063;48.356;10.896;2022-10-19T09:26:54;17.20;99.90
45329;DHT22;31063;48.356;10.896;2022-10-19T09:29:25;17.30;99.90
45329;DHT22;31063;48.356;10.896;2022-10-19T09:31:53;17.20;99.90
45329;DHT22;31063;48.356;10.896;2022-10-19T09:34:20;17.30;99.90
45329;DHT22;31063;48.356;10.896;2022-10-19T09:36:53;17.30;99.90
45329;DHT22;31063;48.356;10.896;2022-10-19T09:39:23;17.30;99.90
45329;DHT22;31063;48.356;10.896;2022-10-19T09:41:50;17.40;99.90
45329;DHT22;31063;48.356;10.896;2022-10-19T09:44:16;17.40;99.90
45329;DHT22;31063;48.356;10.896;2022-10-19T09:49:42;17.50;99.90
45329;DHT22;31063;48.356;10.896;2022-10-19T09:52:54;17.50;99.90
45329;DHT22;31063;48.356;10.896;2022-10-19T09:55:01;17.50;99.90
45329;DHT22;31063;48.356;10.896;2022-10-19T09:57:27;17.50;99.90
45329;DHT22;31063;48.356;10.896;2022-10-19T09:59:53;17.50;99.90
45329;DHT22;31063;48.356;10.896;2022-10-19T10:02:20;17.50;99.90
45329;DHT22;31063;48.356;10.896;2022-10-19T10:04:54;17.60;99.90
45329;DHT22;31063;48.356;10.896;2022-10-19T10:07:19;17.60;99.90
45329;DHT22;31063;48.356;10.896;2022-10-19T10:09:45;17.60;99.90
45329;DHT22;31063;48.356;10.896;2022-10-19T10:12:13;17.70;99.90
45329;DHT22;31063;48.356;10.896;2022-10-19T10:14:38;17.70;99.90
45329;DHT22;31063;48.356;10.896;2022-10-19T10:19:48;17.70;99.90
45329;DHT22;31063;48.356;10.896;2022-10-19T10:22:24;17.70;99.90
45329;DHT22;31063;48.356;10.896;2022-10-19T10:24:51;17.70;99.90
45329;DHT22;31063;48.356;10.896;2022-10-19T10:27:34;17.70;99.90
45329;DHT22;31063;48.356;10.896;2022-10-19T10:30:03;17.70;99.90
45329;DHT22;31063;48.356;10.896;2022-10-19T10:32:29;17.80;99.90
45329;DHT22;31063;48.356;10.896;2022-10-19T10:35:15;17.80;99.90
45329;DHT22;31063;48.356;10.896;2022-10-19T10:37:42;17.90;99.90
45329;DHT22;31063;48.356;10.896;2022-10-19T10:43:05;17.80;99.90
45329;DHT22;31063;48.356;10.896;2022-10-19T10:45:31;17.80;99.90
45329;DHT22;31063;48.356;10.896;2022-10-19T10:47:58;17.80;99.90
45329;DHT22;31063;48.356;10.896;2022-10-19T10:50:33;17.80;99.90
45329;DHT22;31063;48.356;10.896;2022-10-19T10:53:05;17.80;99.90
45329;DHT22;31063;48.356;10.896;2022-10-19T10:55:31;17.80;99.90
45329;DHT22;31063;48.356;10.896;2022-10-19T10:58:20;17.90;99.90
45329;DHT22;31063;48.356;10.896;2022-10-19T11:00:48;17.90;99.90
45329;DHT22;31063;48.356;10.896;2022-10-19T11:03:21;17.90;99.90
45329;DHT22;31063;48.356;10.896;2022-10-19T11:05:51;18.00;99.90
45329;DHT22;31063;48.356;10.896;2022-10-19T11:08:19;18.00;99.90
45329;DHT22;31063;48.356;10.896;2022-10-19T11:13:16;18.00;99.90
45329;DHT22;31063;48.356;10.896;2022-10-19T11:15:45;18.00;99.90
45329;DHT22;31063;48.356;10.896;2022-10-19T11:18:18;18.00;99.90
45329;DHT22;31063;48.356;10.896;2022-10-19T11:20:48;18.00;99.90
45329;DHT22;31063;48.356;10.896;2022-10-19T11:23:34;18.10;99.90
45329;DHT22;31063;48.356;10.896;2022-10-19T11:26:17;18.00;99.90
45329;DHT22;31063;48.356;10.896;2022-10-19T11:28:54;18.10;99.90
45329;DHT22;31063;48.356;10.896;2022-10-19T11:31:25;18.10;99.90
45329;DHT22;31063;48.356;10.896;2022-10-19T11:54:14;17.90;99.90
45329;DHT22;31063;48.356;10.896;2022-10-19T11:59:50;17.90;99.90
45329;DHT22;31063;48.356;10.896;2022-10-19T12:02:31;18.00;99.90
45329;DHT22;31063;48.356;10.896;2022-10-19T12:05:03;17.90;99.90
45329;DHT22;31063;48.356;10.896;2022-10-19T12:07:34;17.90;99.90
45329;DHT22;31063;48.356;10.896;2022-10-19T12:12:46;18.00;99.90
45329;DHT22;31063;48.356;10.896;2022-10-19T12:17:55;18.00;99.90
45329;DHT22;31063;48.356;10.896;2022-10-19T12:20:29;17.90;99.90
45329;DHT22;31063;48.356;10.896;2022-10-19T12:22:59;18.00;99.90
45329;DHT22;31063;48.356;10.896;2022-10-19T12:25:26;18.00;99.90
45329;DHT22;31063;48.356;10.896;2022-10-19T12:27:52;17.90;99.90
45329;DHT22;31063;48.356;10.896;2022-10-19T12:30:19;18.00;99.90
45329;DHT22;31063;48.356;10.896;2022-10-19T12:32:59;18.00;99.90
45329;DHT22;31063;48.356;10.896;2022-10-19T12:35:38;18.00;99.90
45329;DHT22;31063;48.356;10.896;2022-10-19T12:38:11;18.10;99.90
45329;DHT22;31063;48.356;10.896;2022-10-19T12:40:41;18.10;99.90
45329;DHT22;31063;48.356;10.896;2022-10-19T12:43:14;18.10;99.90
45329;DHT22;31063;48.356;10.896;2022-10-19T12:45:51;18.10;99.90
45329;DHT22;31063;48.356;10.896;2022-10-19T12:48:19;18.10;99.90
45329;DHT22;31063;48.356;10.896;2022-10-19T12:56:04;18.20;99.90
45329;DHT22;31063;48.356;10.896;2022-10-19T12:58:32;18.20;99.90
45329;DHT22;31063;48.356;10.896;2022-10-19T13:00:59;18.20;99.90
45329;DHT22;31063;48.356;10.896;2022-10-19T13:03:26;18.30;99.90
45329;DHT22;31063;48.356;10.896;2022-10-19T13:05:54;18.30;99.90
45329;DHT22;31063;48.356;10.896;2022-10-19T13:08:28;18.50;99.90
45329;DHT22;31063;48.356;10.896;2022-10-19T13:11:08;18.60;99.90
45329;DHT22;31063;48.356;10.896;2022-10-19T13:32:38;18.80;99.90
45329;DHT22;31063;48.356;10.896;2022-10-19T13:35:18;18.80;99.90
45329;DHT22;31063;48.356;10.896;2022-10-19T13:37:40;18.80;99.90
45329;DHT22;31063;48.356;10.896;2022-10-19T13:40:16;18.80;99.90
45329;DHT22;31063;48.356;10.896;2022-10-19T13:42:42;18.80;99.90
45329;DHT22;31063;48.356;10.896;2022-10-19T13:45:19;18.70;99.90
45329;DHT22;31063;48.356;10.896;2022-10-19T13:47:45;18.80;99.90
45329;DHT22;31063;48.356;10.896;2022-10-19T13:55:13;18.70;99.90
45329;DHT22;31063;48.356;10.896;2022-10-19T13:57:47;18.70;99.90
45329;DHT22;31063;48.356;10.896;2022-10-19T14:00:18;18.70;99.90
45329;DHT22;31063;48.356;10.896;2022-10-19T14:03:01;18.70;99.90
45329;DHT22;31063;48.356;10.896;2022-10-19T14:10:48;18.80;99.90
45329;DHT22;31063;48.356;10.896;2022-10-19T14:13:15;18.80;99.90
45329;DHT22;31063;48.356;10.896;2022-10-19T14:15:48;18.80;99.90
45329;DHT22;31063;48.356;10.896;2022-10-19T14:21:22;19.00;99.90
45329;DHT22;31063;48.356;10.896;2022-10-19T14:23:40;19.10;99.90
45329;DHT22;31063;48.356;10.896;2022-10-19T14:26:14;19.20;99.90
45329;DHT22;31063;48.356;10.896;2022-10-19T14:28:41;19.20;99.90
45329;DHT22;31063;48.356;10.896;2022-10-19T14:31:08;19.20;99.90
45329;DHT22;31063;48.356;10.896;2022-10-19T14:33:37;19.10;99.90
45329;DHT22;31063;48.356;10.896;2022-10-19T14:36:04;19.00;99.90
45329;DHT22;31063;48.356;10.896;2022-10-19T14:38:34;19.20;99.90
45329;DHT22;31063;48.356;10.896;2022-10-19T14:41:02;19.30;99.90
45329;DHT22;31063;48.356;10.896;2022-10-19T14:43:28;19.30;99.90
45329;DHT22;31063;48.356;10.896;2022-10-19T14:48:37;19.30;99.90
45329;DHT22;31063;48.356;10.896;2022-10-19T14:51:04;19.30;99.90
45329;DHT22;31063;48.356;10.896;2022-10-19T14:53:33;19.20;99.90
45329;DHT22;31063;48.356;10.896;2022-10-19T14:56:23;19.30;99.90
45329;DHT22;31063;48.356;10.896;2022-10-19T15:01:31;19.40;99.90
45329;DHT22;31063;48.356;10.896;2022-10-19T15:03:57;19.50;99.90
45329;DHT22;31063;48.356;10.896;2022-10-19T15:06:23;19.50;99.90
45329;DHT22;31063;48.356;10.896;2022-10-19T15:08:51;19.60;99.90
45329;DHT22;31063;48.356;10.896;2022-10-19T15:11:23;19.50;99.90
45329;DHT22;31063;48.356;10.896;2022-10-19T15:13:52;19.40;99.90
45329;DHT22;31063;48.356;10.896;2022-10-19T15:16:33;19.30;99.90
45329;DHT22;31063;48.356;10.896;2022-10-19T15:19:03;19.10;99.90
45329;DHT22;31063;48.356;10.896;2022-10-19T15:21:29;19.00;99.90
45329;DHT22;31063;48.356;10.896;2022-10-19T15:23:55;18.90;99.90
45329;DHT22;31063;48.356;10.896;2022-10-19T15:26:29;18.80;99.90
45329;DHT22;31063;48.356;10.896;2022-10-19T15:29:06;18.80;99.90
45329;DHT22;31063;48.356;10.896;2022-10-19T15:31:32;18.80;99.90
45329;DHT22;31063;48.356;10.896;2022-10-19T15:33:58;18.80;99.90
45329;DHT22;31063;48.356;10.896;2022-10-19T15:36:25;18.70;99.90
45329;DHT22;31063;48.356;10.896;2022-10-19T15:39:04;18.70;99.90
45329;DHT22;31063;48.356;10.896;2022-10-19T15:41:33;18.60;99.90
45329;DHT22;31063;48.356;10.896;2022-10-19T15:43:59;18.50;99.90
45329;DHT22;31063;48.356;10.896;2022-10-19T15:46:32;18.40;99.90
45329;DHT22;31063;48.356;10.896;2022-10-19T15:51:34;18.40;99.90
45329;DHT22;31063;48.356;10.896;2022-10-19T15:54:04;18.30;99.90
45329;DHT22;31063;48.356;10.896;2022-10-19T15:56:30;18.20;99.90
45329;DHT22;31063;48.356;10.896;2022-10-19T15:58:57;18.20;99.90
45329;DHT22;31063;48.356;10.896;2022-10-19T16:01:24;18.10;99.90
45329;DHT22;31063;48.356;10.896;2022-10-19T16:03:50;18.10;99.90
45329;DHT22;31063;48.356;10.896;2022-10-19T16:06:16;18.10;99.90
45329;DHT22;31063;48.356;10.896;2022-10-19T16:08:42;18.00;99.90
45329;DHT22;31063;48.356;10.896;2022-10-19T16:11:14;17.90;99.90
45329;DHT22;31063;48.356;10.896;2022-10-19T16:13:40;17.80;99.90
45329;DHT22;31063;48.356;10.896;2022-10-19T16:16:07;17.70;99.90
45329;DHT22;31063;48.356;10.896;2022-10-19T16:18:33;17.60;99.90
45329;DHT22;31063;48.356;10.896;2022-10-19T16:20:58;17.60;99.90
45329;DHT22;31063;48.356;10.896;2022-10-19T16:23:24;17.50;99.90
45329;DHT22;31063;48.356;10.896;2022-10-19T16:25:49;17.40;99.90
45329;DHT22;31063;48.356;10.896;2022-10-19T16:28:17;17.40;99.90
45329;DHT22;31063;48.356;10.896;2022-10-19T16:30:42;17.30;99.90
45329;DHT22;31063;48.356;10.896;2022-10-19T16:33:08;17.30;99.90
45329;DHT22;31063;48.356;10.896;2022-10-19T16:35:35;17.20;99.90
45329;DHT22;31063;48.356;10.896;2022-10-19T16:38:01;17.20;99.90
45329;DHT22;31063;48.356;10.896;2022-10-19T16:40:26;17.10;99.90
45329;DHT22;31063;48.356;10.896;2022-10-19T16:42:52;17.00;99.90
45329;DHT22;31063;48.356;10.896;2022-10-19T16:45:20;16.90;99.90
45329;DHT22;31063;48.356;10.896;2022-10-19T16:47:48;16.90;99.90
45329;DHT22;31063;48.356;10.896;2022-10-19T16:50:13;16.80;99.90
45329;DHT22;31063;48.356;10.896;2022-10-19T16:52:39;16.80;99.90
45329;DHT22;31063;48.356;10.896;2022-10-19T16:55:05;16.70;99.90
45329;DHT22;31063;48.356;10.896;2022-10-19T16:57:30;16.70;99.90
45329;DHT22;31063;48.356;10.896;2022-10-19T16:59:56;16.60;99.90
45329;DHT22;31063;48.356;10.896;2022-10-19T17:02:21;16.60;99.90
45329;DHT22;31063;48.356;10.896;2022-10-19T17:04:47;16.60;99.90
45329;DHT22;31063;48.356;10.896;2022-10-19T17:07:12;16.50;99.90
45329;DHT22;31063;48.356;10.896;2022-10-19T17:09:38;16.50;99.90
45329;DHT22;31063;48.356;10.896;2022-10-19T17:12:05;16.40;99.90
45329;DHT22;31063;48.356;10.896;2022-10-19T17:14:30;16.40;99.90
45329;DHT22;31063;48.356;10.896;2022-10-19T17:16:56;16.30;99.90
45329;DHT22;31063;48.356;10.896;2022-10-19T17:19:22;16.20;99.90
45329;DHT22;31063;48.356;10.896;2022-10-19T17:21:48;16.20;99.90